Time;durP1;ratioP1;P1;durP2;ratioP2;P2;SDS_P1;SDS_P2;PMS_P1;PMS_P2;Temp;Humidity;BMP_temperature;BMP_pressure;BME280_temperature;BME280_humidity;BME280_pressure;Samples;Min_cycle;Max_cycle;Signal;HPM_P1;HPM_P2
2022/02/18 00:00:26;;;;;;;;;10.75;7.50;;;;;;;;5079716;27;45454;-80
2022/02/18 00:02:52;;;;;;;;;13.75;7.50;;;;;;;;5079564;27;45478;-80
2022/02/18 00:05:17;;;;;;;;;9.50;6.25;;;;;;;;5075277;27;45388;-81
2022/02/18 00:07:42;;;;;;;;;8.75;6.50;;;;;;;;5092763;27;45393;-79
2022/02/18 00:10:08;;;;;;;;;10.50;8.00;;;;;;;;5080431;27;45417;-79
2022/02/18 00:12:33;;;;;;;;;7.75;6.25;;;;;;;;5078043;27;46346;-79
2022/02/18 00:14:59;;;;;;;;;6.75;6.00;;;;;;;;5079471;27;45374;-80
2022/02/18 00:17:24;;;;;;;;;7.50;5.00;;;;;;;;5075704;27;45383;-80
2022/02/18 00:19:49;;;;;;;;;9.00;6.25;;;;;;;;5078606;27;45348;-80
2022/02/18 00:22:14;;;;;;;;;8.25;7.00;;;;;;;;5082190;27;46303;-80
2022/02/18 00:24:39;;;;;;;;;7.50;7.25;;;;;;;;5079426;27;45453;-80
2022/02/18 00:27:05;;;;;;;;;6.50;5.50;;;;;;;;5081286;27;45363;-81
2022/02/18 00:29:30;;;;;;;;;15.75;8.75;;;;;;;;5082791;27;45475;-81
2022/02/18 00:31:55;;;;;;;;;7.50;7.25;;;;;;;;5079327;27;45360;-80
2022/02/18 00:34:20;;;;;;;;;9.00;6.00;;;;;;;;5081914;27;45418;-81
2022/02/18 00:36:46;;;;;;;;;11.50;7.75;;;;;;;;5077246;27;45373;-81
2022/02/18 00:39:11;;;;;;;;;5.50;3.75;;;;;;;;5086764;27;45463;-81
2022/02/18 00:41:37;;;;;;;;;5.00;3.75;;;;;;;;5078416;27;46918;-79
2022/02/18 00:44:02;;;;;;;;;7.00;3.75;;;;;;;;5057275;28;45607;-80
2022/02/18 00:46:29;;;;;;;;;7.25;4.75;;;;;;;;5081693;27;45367;-80
2022/02/18 00:48:54;;;;;;;;;11.25;5.00;;;;;;;;5079383;27;45777;-80
2022/02/18 00:51:19;;;;;;;;;9.25;6.00;;;;;;;;5078734;27;46056;-80
2022/02/18 00:53:45;;;;;;;;;10.00;7.25;;;;;;;;5079010;27;45412;-80
2022/02/18 00:56:10;;;;;;;;;8.50;5.00;;;;;;;;5074498;27;45449;-80
2022/02/18 00:58:35;;;;;;;;;12.00;7.75;;;;;;;;5088353;27;45318;-80
2022/02/18 01:01:00;;;;;;;;;10.50;8.25;;;;;;;;5079278;27;46249;-80
2022/02/18 01:03:26;;;;;;;;;7.50;6.75;;;;;;;;5078748;27;45434;-80
2022/02/18 01:05:51;;;;;;;;;10.50;7.50;;;;;;;;5078714;27;45398;-80
2022/02/18 01:08:16;;;;;;;;;15.25;9.75;;;;;;;;5075197;27;45458;-79
2022/02/18 01:10:42;;;;;;;;;10.75;6.00;;;;;;;;5079187;27;46131;-80
2022/02/18 01:13:07;;;;;;;;;12.00;9.00;;;;;;;;5077674;27;45375;-79
2022/02/18 01:15:32;;;;;;;;;9.25;5.25;;;;;;;;5078776;27;45263;-81
2022/02/18 01:17:58;;;;;;;;;8.75;5.75;;;;;;;;5078785;27;45528;-79
2022/02/18 01:20:23;;;;;;;;;13.00;8.25;;;;;;;;5076100;27;45281;-79
2022/02/18 01:22:48;;;;;;;;;5.00;5.00;;;;;;;;5078015;27;45280;-79
2022/02/18 01:25:15;;;;;;;;;6.25;4.75;;;;;;;;5079613;27;45457;-79
2022/02/18 01:27:41;;;;;;;;;9.50;5.00;;;;;;;;5078782;27;45375;-79
2022/02/18 01:30:06;;;;;;;;;8.25;5.00;;;;;;;;5078273;27;46081;-79
2022/02/18 01:32:32;;;;;;;;;2.75;2.00;;;;;;;;5077239;27;45508;-78
2022/02/18 01:34:58;;;;;;;;;6.00;5.25;;;;;;;;5075535;27;45443;-79
2022/02/18 01:37:23;;;;;;;;;11.50;7.75;;;;;;;;5080465;27;45494;-79
2022/02/18 01:39:49;;;;;;;;;9.75;7.00;;;;;;;;5078088;27;46164;-80
2022/02/18 01:42:14;;;;;;;;;5.00;5.00;;;;;;;;5058412;28;45561;-80
2022/02/18 01:44:49;;;;;;;;;10.25;6.50;;;;;;;;5078000;27;45345;-81
2022/02/18 01:47:16;;;;;;;;;7.25;6.25;;;;;;;;5059331;27;45531;-81
2022/02/18 01:49:44;;;;;;;;;9.75;6.00;;;;;;;;5078532;27;46286;-79
2022/02/18 01:52:10;;;;;;;;;10.25;6.75;;;;;;;;5077564;27;45528;-80
2022/02/18 01:54:35;;;;;;;;;6.00;4.00;;;;;;;;5077867;27;47375;-79
2022/02/18 01:57:01;;;;;;;;;8.75;7.75;;;;;;;;5078201;27;45521;-80
2022/02/18 01:59:28;;;;;;;;;7.00;6.50;;;;;;;;5075840;27;46158;-78
2022/02/18 02:01:53;;;;;;;;;9.50;6.75;;;;;;;;5075790;27;45371;-80
2022/02/18 02:04:18;;;;;;;;;8.00;5.00;;;;;;;;5079797;27;45515;-78
2022/02/18 02:06:43;;;;;;;;;7.25;7.25;;;;;;;;5077990;27;45514;-80
2022/02/18 02:09:09;;;;;;;;;10.25;6.25;;;;;;;;5077709;27;45485;-79
2022/02/18 02:11:35;;;;;;;;;9.25;5.75;;;;;;;;5073613;28;45639;-79
2022/02/18 02:14:04;;;;;;;;;9.00;7.25;;;;;;;;5089872;27;45558;-79
2022/02/18 02:16:29;;;;;;;;;9.00;7.00;;;;;;;;5080066;27;45471;-79
2022/02/18 02:18:55;;;;;;;;;8.75;6.00;;;;;;;;5058591;28;47039;-79
2022/02/18 02:21:22;;;;;;;;;9.25;7.00;;;;;;;;5059548;28;45497;-79
2022/02/18 02:23:47;;;;;;;;;9.00;8.25;;;;;;;;5077535;27;45496;-80
2022/02/18 02:26:13;;;;;;;;;11.75;6.75;;;;;;;;5073854;27;45273;-78
2022/02/18 02:28:38;;;;;;;;;9.00;7.00;;;;;;;;5079432;27;45275;-79
2022/02/18 02:31:03;;;;;;;;;8.75;8.75;;;;;;;;5077793;27;45422;-79
2022/02/18 02:33:29;;;;;;;;;8.25;8.00;;;;;;;;5077949;27;45407;-79
2022/02/18 02:35:54;;;;;;;;;6.00;6.00;;;;;;;;5059651;27;45406;-79
2022/02/18 02:38:20;;;;;;;;;6.25;5.50;;;;;;;;5073096;27;46468;-79
2022/02/18 02:40:45;;;;;;;;;7.50;6.50;;;;;;;;5077959;27;45201;-79
2022/02/18 02:43:10;;;;;;;;;9.50;8.00;;;;;;;;5078455;27;45581;-79
2022/02/18 02:45:35;;;;;;;;;7.75;6.00;;;;;;;;5077668;27;45447;-79
2022/02/18 02:48:00;;;;;;;;;10.00;8.50;;;;;;;;5077565;27;45418;-79
2022/02/18 02:50:26;;;;;;;;;7.50;5.75;;;;;;;;5075195;27;45502;-79
2022/02/18 02:52:51;;;;;;;;;3.00;3.00;;;;;;;;5076024;27;45443;-78
2022/02/18 02:55:16;;;;;;;;;5.75;5.75;;;;;;;;5078859;27;45583;-79
2022/02/18 02:57:42;;;;;;;;;9.00;5.75;;;;;;;;5077172;27;46284;-79
2022/02/18 03:00:08;;;;;;;;;7.75;5.75;;;;;;;;5077582;27;45487;-79
2022/02/18 03:02:33;;;;;;;;;3.25;3.25;;;;;;;;5079434;27;45333;-79
2022/02/18 03:04:58;;;;;;;;;2.00;2.00;;;;;;;;5077794;27;45419;-79
2022/02/18 03:07:24;;;;;;;;;7.00;5.50;;;;;;;;5082408;27;45330;-79
2022/02/18 03:09:49;;;;;;;;;7.00;5.50;;;;;;;;5080472;27;45282;-79
2022/02/18 03:12:14;;;;;;;;;6.50;6.50;;;;;;;;5062823;27;45584;-80
2022/02/18 03:14:39;;;;;;;;;0.25;0.25;;;;;;;;5080402;27;45501;-79
2022/02/18 03:17:05;;;;;;;;;6.25;5.25;;;;;;;;5076456;27;47079;-80
2022/02/18 03:19:30;;;;;;;;;6.00;4.00;;;;;;;;5082631;27;45330;-79
2022/02/18 03:21:56;;;;;;;;;3.75;3.75;;;;;;;;5080165;27;45403;-80
2022/02/18 03:24:21;;;;;;;;;6.75;6.00;;;;;;;;5080548;27;45521;-78
2022/02/18 03:26:46;;;;;;;;;4.00;4.00;;;;;;;;5080411;27;45487;-79
2022/02/18 03:29:12;;;;;;;;;4.50;4.50;;;;;;;;5076382;27;45628;-80
2022/02/18 03:31:37;;;;;;;;;3.00;3.00;;;;;;;;5082439;27;45505;-79
2022/02/18 03:34:02;;;;;;;;;3.50;3.50;;;;;;;;5080494;27;45587;-78
2022/02/18 03:36:27;;;;;;;;;3.50;3.50;;;;;;;;5079964;27;45389;-78
2022/02/18 03:38:55;;;;;;;;;4.50;2.00;;;;;;;;5080497;27;45351;-78
2022/02/18 03:41:20;;;;;;;;;4.00;3.00;;;;;;;;5077240;27;45299;-78
2022/02/18 03:43:45;;;;;;;;;2.50;1.75;;;;;;;;5080067;27;45467;-79
2022/02/18 03:46:10;;;;;;;;;0.75;0.75;;;;;;;;5080801;27;46167;-80
2022/02/18 03:48:36;;;;;;;;;0.00;0.00;;;;;;;;5080066;27;45408;-80
2022/02/18 03:51:01;;;;;;;;;0.00;0.00;;;;;;;;5079839;27;45386;-80
2022/02/18 03:53:26;;;;;;;;;1.00;0.00;;;;;;;;5078256;27;45359;-80
2022/02/18 03:55:52;;;;;;;;;1.00;0.00;;;;;;;;5077924;27;47116;-77
2022/02/18 03:58:17;;;;;;;;;2.00;0.00;;;;;;;;5081861;27;45437;-79
2022/02/18 04:00:42;;;;;;;;;0.25;0.25;;;;;;;;5080202;27;45402;-79
2022/02/18 04:03:07;;;;;;;;;1.00;0.00;;;;;;;;5080032;27;45315;-79
2022/02/18 04:05:33;;;;;;;;;0.00;0.00;;;;;;;;5078160;27;46284;-80
2022/02/18 04:07:58;;;;;;;;;0.25;0.00;;;;;;;;5076137;27;45525;-79
2022/02/18 04:10:23;;;;;;;;;0.00;0.00;;;;;;;;5081704;27;45458;-79
2022/02/18 04:12:48;;;;;;;;;0.00;0.00;;;;;;;;5079729;27;45407;-78
2022/02/18 04:15:14;;;;;;;;;0.00;0.00;;;;;;;;5079133;27;45554;-78
2022/02/18 04:17:39;;;;;;;;;0.00;0.00;;;;;;;;5079320;27;45438;-79
2022/02/18 04:20:04;;;;;;;;;0.00;0.00;;;;;;;;5075041;27;45316;-79
2022/02/18 04:22:29;;;;;;;;;1.00;0.00;;;;;;;;5081596;27;45619;-79
2022/02/18 04:24:55;;;;;;;;;0.00;0.00;;;;;;;;5079293;27;46503;-79
2022/02/18 04:27:20;;;;;;;;;0.00;0.00;;;;;;;;5078240;27;45438;-79
2022/02/18 04:29:45;;;;;;;;;0.00;0.00;;;;;;;;5079350;27;45507;-79
2022/02/18 04:32:11;;;;;;;;;0.00;0.00;;;;;;;;5075217;27;45284;-79
2022/02/18 04:34:36;;;;;;;;;0.00;0.00;;;;;;;;5080862;27;47070;-79
2022/02/18 04:37:01;;;;;;;;;0.25;0.00;;;;;;;;5079139;27;45354;-78
2022/02/18 04:39:26;;;;;;;;;0.00;0.00;;;;;;;;5079377;27;45231;-79
2022/02/18 04:41:51;;;;;;;;;1.00;0.75;;;;;;;;5079249;27;45385;-79
2022/02/18 04:44:17;;;;;;;;;0.00;0.00;;;;;;;;5075801;27;45499;-79
2022/02/18 04:46:42;;;;;;;;;1.00;0.00;;;;;;;;5079420;27;45359;-77
2022/02/18 04:49:08;;;;;;;;;0.00;0.00;;;;;;;;5079482;27;45481;-79
2022/02/18 04:51:33;;;;;;;;;1.00;0.00;;;;;;;;5079154;27;45432;-80
2022/02/18 04:53:58;;;;;;;;;0.00;0.00;;;;;;;;5078830;27;45287;-79
2022/02/18 04:56:23;;;;;;;;;0.00;0.00;;;;;;;;5076059;27;45573;-79
2022/02/18 04:58:49;;;;;;;;;0.00;0.00;;;;;;;;5078018;27;45397;-79
2022/02/18 05:01:16;;;;;;;;;0.00;0.00;;;;;;;;5079613;27;45481;-79
2022/02/18 05:03:41;;;;;;;;;1.00;0.00;;;;;;;;5077555;27;47085;-79
2022/02/18 05:06:06;;;;;;;;;1.00;0.00;;;;;;;;5078067;27;45251;-79
2022/02/18 05:08:31;;;;;;;;;0.50;0.00;;;;;;;;5059098;27;45419;-79
2022/02/18 05:10:57;;;;;;;;;0.25;0.00;;;;;;;;5075095;27;45287;-79
2022/02/18 05:13:22;;;;;;;;;0.50;0.50;;;;;;;;5061710;28;46095;-77
2022/02/18 05:15:48;;;;;;;;;0.50;0.00;;;;;;;;5077880;27;45307;-79
2022/02/18 05:18:13;;;;;;;;;0.00;0.00;;;;;;;;5077856;27;45450;-79
2022/02/18 05:20:38;;;;;;;;;0.00;0.00;;;;;;;;5078084;27;45359;-78
2022/02/18 05:23:03;;;;;;;;;0.00;0.00;;;;;;;;5073383;27;46934;-78
2022/02/18 05:25:29;;;;;;;;;1.00;1.00;;;;;;;;5080485;27;45328;-78
2022/02/18 05:27:54;;;;;;;;;0.25;0.25;;;;;;;;5078198;27;45349;-78
2022/02/18 05:30:19;;;;;;;;;0.00;0.00;;;;;;;;5078506;27;45415;-78
2022/02/18 05:32:45;;;;;;;;;0.00;0.00;;;;;;;;5077366;27;46251;-80
2022/02/18 05:35:10;;;;;;;;;0.00;0.00;;;;;;;;5072987;27;45496;-80
2022/02/18 05:37:35;;;;;;;;;3.00;0.00;;;;;;;;5080040;27;45373;-80
2022/02/18 05:40:01;;;;;;;;;0.00;0.00;;;;;;;;5077497;27;45342;-80
2022/02/18 05:42:26;;;;;;;;;0.00;0.00;;;;;;;;5077699;27;46150;-77
2022/02/18 05:44:51;;;;;;;;;0.50;0.50;;;;;;;;5077658;27;45561;-79
2022/02/18 05:47:16;;;;;;;;;1.50;0.25;;;;;;;;5073702;27;45450;-78
2022/02/18 05:49:42;;;;;;;;;0.00;0.00;;;;;;;;5078344;27;45398;-79
2022/02/18 05:52:07;;;;;;;;;0.00;0.00;;;;;;;;5076436;27;46127;-80
2022/02/18 05:54:32;;;;;;;;;0.25;0.25;;;;;;;;5076877;27;45460;-80
2022/02/18 05:56:58;;;;;;;;;0.00;0.00;;;;;;;;5077431;27;45582;-80
2022/02/18 05:59:23;;;;;;;;;0.00;0.00;;;;;;;;5074834;27;45528;-80
2022/02/18 06:01:48;;;;;;;;;1.00;0.00;;;;;;;;5075711;27;45473;-78
2022/02/18 06:04:14;;;;;;;;;0.00;0.00;;;;;;;;5078336;27;45509;-80
2022/02/18 06:06:40;;;;;;;;;0.00;0.00;;;;;;;;5077383;27;45346;-79
2022/02/18 06:09:05;;;;;;;;;1.00;0.00;;;;;;;;5077244;27;45236;-80
2022/02/18 06:11:30;;;;;;;;;1.00;1.00;;;;;;;;5075254;27;46633;-80
2022/02/18 06:13:56;;;;;;;;;0.00;0.00;;;;;;;;5051893;28;45595;-80
2022/02/18 06:16:22;;;;;;;;;0.00;0.00;;;;;;;;5058643;28;45396;-80
2022/02/18 06:18:47;;;;;;;;;1.00;0.00;;;;;;;;5056092;28;45304;-79
2022/02/18 06:21:12;;;;;;;;;2.00;0.00;;;;;;;;5055956;28;46305;-80
2022/02/18 06:23:37;;;;;;;;;0.00;0.00;;;;;;;;5056356;28;45308;-79
2022/02/18 06:26:03;;;;;;;;;0.00;0.00;;;;;;;;5052373;28;45241;-79
2022/02/18 06:28:28;;;;;;;;;0.00;0.00;;;;;;;;5058303;28;45224;-79
2022/02/18 06:30:53;;;;;;;;;0.00;0.00;;;;;;;;5055946;28;45421;-79
2022/02/18 06:33:18;;;;;;;;;0.75;0.00;;;;;;;;5056121;28;45477;-80
2022/02/18 06:35:43;;;;;;;;;1.25;0.00;;;;;;;;5057415;28;45439;-81
2022/02/18 06:38:09;;;;;;;;;0.75;0.00;;;;;;;;5056051;28;45325;-79
2022/02/18 06:40:35;;;;;;;;;2.00;0.50;;;;;;;;5077213;27;46199;-81
2022/02/18 06:43:00;;;;;;;;;0.00;0.00;;;;;;;;5059626;28;45471;-78
2022/02/18 06:45:25;;;;;;;;;0.00;0.00;;;;;;;;5058934;27;45484;-80
2022/02/18 06:47:51;;;;;;;;;1.00;1.00;;;;;;;;5059521;28;45405;-80
2022/02/18 06:50:17;;;;;;;;;0.00;0.00;;;;;;;;5056123;28;45432;-79
2022/02/18 06:52:43;;;;;;;;;1.00;1.00;;;;;;;;5059893;28;45420;-79
2022/02/18 06:55:08;;;;;;;;;0.00;0.00;;;;;;;;5060621;28;45405;-78
2022/02/18 06:57:40;;;;;;;;;0.00;0.00;;;;;;;;5059668;27;45316;-78
2022/02/18 07:00:06;;;;;;;;;0.00;0.00;;;;;;;;5059303;28;45543;-78
2022/02/18 07:02:31;;;;;;;;;0.25;0.00;;;;;;;;5060232;28;45431;-79
2022/02/18 07:04:57;;;;;;;;;0.00;0.00;;;;;;;;5059670;28;45571;-77
2022/02/18 07:07:22;;;;;;;;;0.00;0.00;;;;;;;;5074620;27;45322;-79
2022/02/18 07:09:47;;;;;;;;;0.75;0.75;;;;;;;;5058986;27;45741;-79
2022/02/18 07:12:12;;;;;;;;;0.00;0.00;;;;;;;;5058820;28;45798;-77
2022/02/18 07:14:37;;;;;;;;;0.50;0.00;;;;;;;;5068681;27;45539;-78
2022/02/18 07:17:04;;;;;;;;;0.00;0.00;;;;;;;;5074599;27;45648;-79
2022/02/18 07:19:29;;;;;;;;;0.00;0.00;;;;;;;;5080659;27;46092;-78
2022/02/18 07:21:56;;;;;;;;;1.25;1.00;;;;;;;;5078854;27;45422;-77
2022/02/18 07:24:21;;;;;;;;;1.00;1.00;;;;;;;;5078719;27;45428;-77
2022/02/18 07:26:46;;;;;;;;;0.50;0.50;;;;;;;;5078352;27;45404;-79
2022/02/18 07:29:11;;;;;;;;;0.50;0.50;;;;;;;;5073958;27;46309;-78
2022/02/18 07:31:37;;;;;;;;;0.00;0.00;;;;;;;;5081046;27;45491;-77
2022/02/18 07:34:02;;;;;;;;;0.00;0.00;;;;;;;;5078626;27;45876;-78
2022/02/18 07:36:27;;;;;;;;;1.00;1.00;;;;;;;;5078510;27;45495;-78
2022/02/18 07:38:52;;;;;;;;;2.00;0.00;;;;;;;;5078274;27;45441;-78
2022/02/18 07:41:17;;;;;;;;;0.50;0.00;;;;;;;;5074795;27;45465;-77
2022/02/18 07:43:43;;;;;;;;;0.25;0.25;;;;;;;;5078857;27;45383;-77
2022/02/18 07:46:08;;;;;;;;;0.25;0.25;;;;;;;;5078562;27;45616;-80
2022/02/18 07:48:33;;;;;;;;;1.00;1.00;;;;;;;;5078683;27;46002;-82
2022/02/18 07:50:58;;;;;;;;;2.50;2.00;;;;;;;;5078428;27;45423;-83
2022/02/18 07:53:23;;;;;;;;;0.50;0.50;;;;;;;;5075798;27;45338;-78
2022/02/18 07:55:49;;;;;;;;;0.00;0.00;;;;;;;;5077200;27;45323;-82
2022/02/18 07:58:15;;;;;;;;;0.00;0.00;;;;;;;;5077683;27;45985;-80
2022/02/18 08:00:40;;;;;;;;;0.00;0.00;;;;;;;;5077994;27;45544;-79
2022/02/18 08:03:05;;;;;;;;;3.50;2.00;;;;;;;;5077875;27;46391;-80
2022/02/18 08:05:30;;;;;;;;;2.50;1.00;;;;;;;;5076336;27;45446;-80
2022/02/18 08:07:57;;;;;;;;;3.50;1.50;;;;;;;;5074809;27;45525;-80
2022/02/18 08:10:23;;;;;;;;;0.75;0.00;;;;;;;;5079596;27;45412;-80
2022/02/18 08:12:48;;;;;;;;;0.00;0.00;;;;;;;;5077965;27;45512;-80
2022/02/18 08:15:13;;;;;;;;;0.00;0.00;;;;;;;;5078157;27;45565;-80
2022/02/18 08:17:38;;;;;;;;;2.25;0.00;;;;;;;;5077700;27;47224;-80
2022/02/18 08:20:05;;;;;;;;;1.00;0.00;;;;;;;;5073683;27;45390;-81
2022/02/18 08:22:30;;;;;;;;;1.25;1.25;;;;;;;;5080100;27;45219;-81
2022/02/18 08:24:55;;;;;;;;;4.00;2.00;;;;;;;;5078111;27;45632;-81
2022/02/18 08:27:20;;;;;;;;;0.00;0.00;;;;;;;;5077826;27;45682;-79
2022/02/18 08:29:46;;;;;;;;;2.50;2.50;;;;;;;;5077990;27;45372;-81
2022/02/18 08:32:11;;;;;;;;;1.75;1.00;;;;;;;;5074328;27;45278;-81
2022/02/18 08:34:36;;;;;;;;;1.25;0.50;;;;;;;;5079962;27;45376;-80
2022/02/18 08:37:02;;;;;;;;;0.00;0.00;;;;;;;;5077829;27;45498;-81
2022/02/18 08:39:27;;;;;;;;;0.00;0.00;;;;;;;;5075159;27;45406;-82
2022/02/18 08:41:52;;;;;;;;;2.25;0.00;;;;;;;;5077872;27;45311;-80
2022/02/18 08:44:19;;;;;;;;;0.00;0.00;;;;;;;;5074927;27;45284;-81
2022/02/18 08:46:44;;;;;;;;;0.00;0.00;;;;;;;;5078118;27;45453;-80
2022/02/18 08:49:10;;;;;;;;;0.00;0.00;;;;;;;;5078108;27;45656;-82
2022/02/18 08:51:35;;;;;;;;;1.25;0.75;;;;;;;;5077553;27;45849;-81
2022/02/18 08:54:01;;;;;;;;;1.00;1.00;;;;;;;;5077004;27;45402;-79
2022/02/18 08:56:27;;;;;;;;;0.25;0.25;;;;;;;;5073303;28;46559;-81
2022/02/18 08:58:52;;;;;;;;;0.25;0.00;;;;;;;;5088517;27;47925;-81
2022/02/18 09:01:18;;;;;;;;;0.00;0.00;;;;;;;;5078690;27;45362;-81
2022/02/18 09:03:43;;;;;;;;;0.00;0.00;;;;;;;;5077225;27;45592;-82
2022/02/18 09:06:09;;;;;;;;;0.00;0.00;;;;;;;;5077172;27;47075;-80
2022/02/18 09:08:34;;;;;;;;;2.00;0.25;;;;;;;;5076299;27;45373;-81
2022/02/18 09:10:59;;;;;;;;;0.00;0.00;;;;;;;;5091729;27;45367;-80
2022/02/18 09:13:26;;;;;;;;;1.00;0.00;;;;;;;;5081355;27;45348;-80
2022/02/18 09:15:51;;;;;;;;;0.00;0.00;;;;;;;;5077171;27;46093;-80
2022/02/18 09:18:17;;;;;;;;;0.00;0.00;;;;;;;;5076833;27;45367;-80
2022/02/18 09:20:44;;;;;;;;;0.00;0.00;;;;;;;;5077221;27;45385;-80
2022/02/18 09:23:09;;;;;;;;;0.00;0.00;;;;;;;;5056665;28;45376;-80
2022/02/18 09:25:35;;;;;;;;;2.00;0.00;;;;;;;;5079453;27;45321;-80
2022/02/18 09:28:01;;;;;;;;;0.00;0.00;;;;;;;;5077364;27;45397;-81
2022/02/18 09:30:26;;;;;;;;;0.00;0.00;;;;;;;;5077338;27;45513;-80
2022/02/18 09:32:51;;;;;;;;;0.25;0.25;;;;;;;;5077438;27;45395;-81
2022/02/18 09:35:16;;;;;;;;;0.00;0.00;;;;;;;;5073571;27;46173;-81
2022/02/18 09:37:42;;;;;;;;;0.00;0.00;;;;;;;;5077776;27;45361;-82
2022/02/18 09:40:08;;;;;;;;;0.00;0.00;;;;;;;;5077906;27;45421;-79
2022/02/18 09:42:35;;;;;;;;;0.00;0.00;;;;;;;;5083063;27;45505;-80
2022/02/18 09:45:01;;;;;;;;;0.00;0.00;;;;;;;;5086661;27;47004;-82
2022/02/18 09:47:27;;;;;;;;;0.00;0.00;;;;;;;;5074592;27;45316;-82
2022/02/18 09:49:53;;;;;;;;;0.00;0.00;;;;;;;;5075570;27;45756;-79
2022/02/18 09:52:19;;;;;;;;;2.00;0.00;;;;;;;;5078274;27;45480;-75
2022/02/18 09:54:46;;;;;;;;;0.50;0.50;;;;;;;;5076349;27;45409;-76
2022/02/18 09:57:11;;;;;;;;;0.00;0.00;;;;;;;;5075252;27;45537;-76
2022/02/18 09:59:37;;;;;;;;;0.00;0.00;;;;;;;;5075446;27;45513;-75
2022/02/18 10:02:03;;;;;;;;;2.50;1.00;;;;;;;;5072610;27;45376;-75
2022/02/18 10:04:29;;;;;;;;;0.25;0.25;;;;;;;;5078221;27;45489;-76
2022/02/18 10:06:55;;;;;;;;;0.00;0.00;;;;;;;;5075522;27;45505;-75
2022/02/18 10:09:40;;;;;;;;;0.00;0.00;;;;;;;;5075900;27;45541;-76
2022/02/18 10:12:06;;;;;;;;;0.25;0.25;;;;;;;;5076071;27;45268;-76
2022/02/18 10:14:50;;;;;;;;;1.00;0.00;;;;;;;;5074525;27;46463;-74
2022/02/18 10:17:15;;;;;;;;;0.00;0.00;;;;;;;;5057568;27;45394;-74
2022/02/18 10:19:50;;;;;;;;;0.75;0.75;;;;;;;;5077213;27;45394;-76
2022/02/18 10:22:21;;;;;;;;;0.00;0.00;;;;;;;;5077314;27;45688;-76
2022/02/18 10:24:47;;;;;;;;;0.00;0.00;;;;;;;;5076593;27;46138;-75
2022/02/18 10:27:15;;;;;;;;;1.00;0.00;;;;;;;;5076353;27;45362;-74
2022/02/18 10:29:40;;;;;;;;;0.00;0.00;;;;;;;;5076442;27;45377;-76
2022/02/18 10:32:12;;;;;;;;;0.00;0.00;;;;;;;;5072583;27;45402;-76
2022/02/18 10:34:50;;;;;;;;;0.00;0.00;;;;;;;;5085543;27;46981;-75
2022/02/18 10:37:15;;;;;;;;;0.00;0.00;;;;;;;;5076981;27;45481;-77
2022/02/18 10:39:41;;;;;;;;;0.25;0.25;;;;;;;;5075914;27;45411;-74
2022/02/18 10:42:06;;;;;;;;;0.00;0.00;;;;;;;;5076330;27;45232;-74
2022/02/18 10:44:32;;;;;;;;;0.00;0.00;;;;;;;;5074054;27;45471;-75
2022/02/18 10:47:00;;;;;;;;;0.00;0.00;;;;;;;;5073216;27;45316;-76
2022/02/18 10:49:29;;;;;;;;;0.00;0.00;;;;;;;;5078312;27;45246;-74
2022/02/18 10:51:56;;;;;;;;;4.50;4.50;;;;;;;;5071619;27;45380;-75
2022/02/18 10:54:31;;;;;;;;;1.00;0.75;;;;;;;;5074532;27;45394;-75
2022/02/18 10:57:12;;;;;;;;;0.00;0.00;;;;;;;;5084861;27;45427;-75
2022/02/18 10:59:37;;;;;;;;;0.50;0.50;;;;;;;;5073572;27;45569;-75
2022/02/18 11:02:03;;;;;;;;;0.00;0.00;;;;;;;;5070865;27;45693;-74
2022/02/18 11:04:28;;;;;;;;;1.00;1.00;;;;;;;;5076379;27;46009;-75
2022/02/18 11:07:06;;;;;;;;;2.00;2.00;;;;;;;;5074686;27;45430;-74
2022/02/18 11:09:32;;;;;;;;;0.00;0.00;;;;;;;;5075154;27;45550;-73
2022/02/18 11:11:58;;;;;;;;;0.00;0.00;;;;;;;;5075086;27;45523;-74
2022/02/18 11:14:24;;;;;;;;;1.00;0.50;;;;;;;;5071733;27;46350;-75
2022/02/18 11:16:52;;;;;;;;;0.00;0.00;;;;;;;;5073279;27;45472;-78
2022/02/18 11:19:19;;;;;;;;;0.50;0.50;;;;;;;;5075525;27;45534;-78
2022/02/18 11:21:44;;;;;;;;;0.00;0.00;;;;;;;;5084406;27;45556;-78
2022/02/18 11:24:09;;;;;;;;;0.00;0.00;;;;;;;;5085899;27;46763;-77
2022/02/18 11:26:35;;;;;;;;;0.00;0.00;;;;;;;;5077019;27;45438;-77
2022/02/18 11:29:02;;;;;;;;;0.00;0.00;;;;;;;;5074454;27;45544;-77
2022/02/18 11:31:39;;;;;;;;;1.00;1.00;;;;;;;;5079878;27;45427;-78
2022/02/18 11:34:14;;;;;;;;;0.00;0.00;;;;;;;;5077110;27;46362;-78
2022/02/18 11:36:49;;;;;;;;;0.00;0.00;;;;;;;;5077603;27;45598;-78
2022/02/18 11:39:29;;;;;;;;;1.25;1.00;;;;;;;;5077493;27;45570;-77
2022/02/18 11:42:09;;;;;;;;;0.00;0.00;;;;;;;;5069164;27;45479;-77
2022/02/18 11:44:34;;;;;;;;;0.00;0.00;;;;;;;;5077847;27;45494;-75
2022/02/18 11:47:24;;;;;;;;;3.00;2.00;;;;;;;;5075309;27;45334;-76
2022/02/18 11:49:52;;;;;;;;;1.75;0.50;;;;;;;;5092334;27;45465;-75
2022/02/18 11:52:21;;;;;;;;;0.00;0.00;;;;;;;;5080304;27;45251;-73
2022/02/18 11:54:47;;;;;;;;;2.50;1.25;;;;;;;;5077246;27;46312;-77
2022/02/18 11:57:19;;;;;;;;;0.00;0.00;;;;;;;;5077715;27;45532;-76
2022/02/18 12:00:05;;;;;;;;;0.00;0.00;;;;;;;;5076687;27;45515;-81
2022/02/18 12:02:37;;;;;;;;;0.00;0.00;;;;;;;;5080105;27;45530;-69
2022/02/18 12:05:07;;;;;;;;;1.00;0.00;;;;;;;;5077746;27;45394;-77
2022/02/18 12:07:40;;;;;;;;;0.00;0.00;;;;;;;;5082751;27;45434;-80
2022/02/18 12:10:17;;;;;;;;;0.00;0.00;;;;;;;;5082319;27;45580;-75
2022/02/18 12:12:43;;;;;;;;;0.00;0.00;;;;;;;;5062996;27;45389;-85
2022/02/18 12:15:23;;;;;;;;;0.00;0.00;;;;;;;;5083168;27;46020;-85
2022/02/18 12:18:03;;;;;;;;;0.00;0.00;;;;;;;;5071929;27;45791;-86
2022/02/18 12:20:30;;;;;;;;;0.00;0.00;;;;;;;;5059129;27;45303;-84
2022/02/18 12:22:56;;;;;;;;;0.00;0.00;;;;;;;;5093636;27;45549;-81
2022/02/18 12:25:28;;;;;;;;;0.00;0.00;;;;;;;;5078802;27;45465;-81
2022/02/18 12:28:13;;;;;;;;;0.00;0.00;;;;;;;;5078792;27;45481;-82
2022/02/18 12:30:40;;;;;;;;;1.00;1.00;;;;;;;;5077533;27;47145;-82
2022/02/18 12:33:06;;;;;;;;;0.00;0.00;;;;;;;;5079228;27;45324;-82
2022/02/18 12:35:34;;;;;;;;;0.00;0.00;;;;;;;;5058958;27;48347;-86
2022/02/18 12:38:01;;;;;;;;;0.00;0.00;;;;;;;;5076767;27;45300;-85
2022/02/18 12:40:27;;;;;;;;;0.25;0.00;;;;;;;;5090548;27;45430;-87
2022/02/18 12:42:56;;;;;;;;;1.00;0.00;;;;;;;;5081109;27;45469;-85
2022/02/18 12:45:33;;;;;;;;;0.00;0.00;;;;;;;;5085042;27;45267;-86
2022/02/18 12:48:00;;;;;;;;;0.75;0.00;;;;;;;;5094106;27;45469;-85
2022/02/18 12:50:30;;;;;;;;;0.00;0.00;;;;;;;;5080884;27;45386;-85
2022/02/18 12:52:55;;;;;;;;;3.50;2.00;;;;;;;;5091164;27;45348;-84
2022/02/18 12:55:24;;;;;;;;;1.25;1.25;;;;;;;;5081005;27;46020;-85
2022/02/18 12:57:49;;;;;;;;;2.00;2.00;;;;;;;;5079855;27;45446;-84
2022/02/18 13:00:15;;;;;;;;;2.00;2.00;;;;;;;;5082430;27;45424;-82
2022/02/18 13:02:46;;;;;;;;;5.00;3.00;;;;;;;;5080589;27;45501;-86
2022/02/18 13:05:13;;;;;;;;;1.75;1.00;;;;;;;;5061636;27;46329;-88
2022/02/18 13:07:40;;;;;;;;;1.00;0.00;;;;;;;;5090741;27;46172;-87
2022/02/18 13:10:06;;;;;;;;;1.00;0.00;;;;;;;;5080309;27;45334;-86
2022/02/18 13:12:42;;;;;;;;;3.75;1.00;;;;;;;;5080406;27;45490;-87
2022/02/18 13:15:09;;;;;;;;;1.00;0.00;;;;;;;;5083678;27;45520;-86
2022/02/18 13:17:35;;;;;;;;;0.50;0.50;;;;;;;;5073520;27;45643;-87
2022/02/18 13:20:00;;;;;;;;;0.75;0.75;;;;;;;;5077478;27;45564;-86
2022/02/18 13:22:33;;;;;;;;;1.00;0.00;;;;;;;;5086394;27;45348;-87
2022/02/18 13:24:58;;;;;;;;;0.00;0.00;;;;;;;;5081539;27;46486;-83
2022/02/18 13:27:23;;;;;;;;;0.00;0.00;;;;;;;;5082169;27;45493;-86
2022/02/18 13:29:53;;;;;;;;;2.00;1.00;;;;;;;;5077123;27;45403;-87
2022/02/18 13:32:19;;;;;;;;;0.25;0.25;;;;;;;;5073280;27;45377;-82
2022/02/18 13:34:48;;;;;;;;;1.00;1.00;;;;;;;;5080878;27;46029;-84
2022/02/18 13:37:15;;;;;;;;;1.00;0.00;;;;;;;;5080632;27;45280;-87
2022/02/18 13:39:44;;;;;;;;;1.25;0.00;;;;;;;;5078068;27;45510;-87
2022/02/18 13:42:10;;;;;;;;;1.50;1.50;;;;;;;;5072797;27;45492;-86
2022/02/18 13:44:35;;;;;;;;;3.00;3.00;;;;;;;;5088025;27;47433;-85
2022/02/18 13:47:05;;;;;;;;;3.25;1.75;;;;;;;;5075088;27;45401;-84
2022/02/18 13:49:31;;;;;;;;;3.75;3.00;;;;;;;;5080206;27;45347;-82
2022/02/18 13:51:56;;;;;;;;;2.50;2.25;;;;;;;;5059367;27;45463;-81
2022/02/18 13:54:26;;;;;;;;;0.00;0.00;;;;;;;;5077029;27;46997;-82
2022/02/18 13:56:51;;;;;;;;;3.00;1.25;;;;;;;;5077476;27;45752;-82
2022/02/18 13:59:28;;;;;;;;;1.00;1.00;;;;;;;;5073365;27;45513;-82
2022/02/18 14:01:59;;;;;;;;;2.25;2.00;;;;;;;;5075957;27;45330;-82
2022/02/18 14:04:31;;;;;;;;;1.00;1.00;;;;;;;;5078870;27;46275;-84
2022/02/18 14:07:04;;;;;;;;;1.00;1.00;;;;;;;;5079499;27;45340;-85
2022/02/18 14:09:39;;;;;;;;;3.75;1.00;;;;;;;;5083454;27;45384;-88
2022/02/18 14:12:04;;;;;;;;;1.00;1.00;;;;;;;;5086358;27;45383;-85
2022/02/18 14:14:29;;;;;;;;;4.50;1.75;;;;;;;;5073003;27;46173;-78
2022/02/18 14:16:56;;;;;;;;;0.25;0.00;;;;;;;;5074889;27;45580;-79
2022/02/18 14:19:22;;;;;;;;;3.00;2.00;;;;;;;;5078546;27;45306;-81
2022/02/18 14:22:00;;;;;;;;;2.50;2.50;;;;;;;;5076906;27;45269;-78
2022/02/18 14:24:34;;;;;;;;;0.75;0.00;;;;;;;;5077575;27;47096;-76
2022/02/18 14:26:59;;;;;;;;;4.00;1.00;;;;;;;;5082677;27;45384;-83
2022/02/18 14:29:24;;;;;;;;;1.00;1.00;;;;;;;;5088679;27;45352;-80
2022/02/18 14:31:53;;;;;;;;;1.50;1.50;;;;;;;;5070313;27;45272;-82
2022/02/18 14:34:19;;;;;;;;;2.50;1.50;;;;;;;;5064217;28;46101;-84
2022/02/18 14:36:44;;;;;;;;;0.25;0.25;;;;;;;;5071161;27;45463;-81
2022/02/18 14:39:09;;;;;;;;;1.00;1.00;;;;;;;;5066016;28;45467;-88